sensor_id;sensor_type;location;lat;lon;timestamp;P1;durP1;ratioP1;P2;durP2;ratioP2
72573;SDS011;60603;52.548;13.420;2024-03-02T00:01:37;59.15;;;28.80;;
72573;SDS011;60603;52.548;13.420;2024-03-02T00:04:04;58.53;;;27.60;;
72573;SDS011;60603;52.548;13.420;2024-03-02T00:06:35;61.22;;;28.15;;
72573;SDS011;60603;52.548;13.420;2024-03-02T00:09:02;58.10;;;27.75;;
72573;SDS011;60603;52.548;13.420;2024-03-02T00:11:29;59.92;;;27.48;;
72573;SDS011;60603;52.548;13.420;2024-03-02T00:13:56;56.17;;;27.13;;
72573;SDS011;60603;52.548;13.420;2024-03-02T00:16:23;59.10;;;28.27;;
72573;SDS011;60603;52.548;13.420;2024-03-02T00:18:50;59.55;;;29.15;;
72573;SDS011;60603;52.548;13.420;2024-03-02T00:21:18;52.50;;;27.38;;
72573;SDS011;60603;52.548;13.420;2024-03-02T00:23:47;56.58;;;27.58;;
72573;SDS011;60603;52.548;13.420;2024-03-02T00:26:15;55.88;;;27.52;;
72573;SDS011;60603;52.548;13.420;2024-03-02T00:28:42;56.35;;;26.33;;
72573;SDS011;60603;52.548;13.420;2024-03-02T00:31:13;55.75;;;28.63;;
72573;SDS011;60603;52.548;13.420;2024-03-02T00:33:47;56.72;;;26.17;;
72573;SDS011;60603;52.548;13.420;2024-03-02T00:36:16;56.85;;;29.67;;
72573;SDS011;60603;52.548;13.420;2024-03-02T00:38:48;57.38;;;26.92;;
72573;SDS011;60603;52.548;13.420;2024-03-02T00:41:50;56.50;;;26.73;;
72573;SDS011;60603;52.548;13.420;2024-03-02T00:44:13;58.63;;;29.67;;
72573;SDS011;60603;52.548;13.420;2024-03-02T00:46:42;59.67;;;29.58;;
72573;SDS011;60603;52.548;13.420;2024-03-02T00:49:13;54.03;;;26.80;;
72573;SDS011;60603;52.548;13.420;2024-03-02T00:51:49;54.13;;;27.27;;
72573;SDS011;60603;52.548;13.420;2024-03-02T00:54:21;57.20;;;27.13;;
72573;SDS011;60603;52.548;13.420;2024-03-02T00:56:53;57.35;;;27.75;;
72573;SDS011;60603;52.548;13.420;2024-03-02T00:59:22;50.00;;;25.50;;
72573;SDS011;60603;52.548;13.420;2024-03-02T01:01:51;55.15;;;27.20;;
72573;SDS011;60603;52.548;13.420;2024-03-02T01:04:18;57.20;;;28.27;;
72573;SDS011;60603;52.548;13.420;2024-03-02T01:06:45;57.50;;;27.17;;
72573;SDS011;60603;52.548;13.420;2024-03-02T01:09:12;51.40;;;25.98;;
72573;SDS011;60603;52.548;13.420;2024-03-02T01:11:39;56.45;;;26.42;;
72573;SDS011;60603;52.548;13.420;2024-03-02T01:14:06;52.70;;;24.85;;
72573;SDS011;60603;52.548;13.420;2024-03-02T01:16:33;53.20;;;26.20;;
72573;SDS011;60603;52.548;13.420;2024-03-02T01:19:00;56.03;;;26.42;;
72573;SDS011;60603;52.548;13.420;2024-03-02T01:21:27;56.50;;;26.17;;
72573;SDS011;60603;52.548;13.420;2024-03-02T01:23:54;52.35;;;27.60;;
72573;SDS011;60603;52.548;13.420;2024-03-02T01:26:21;50.88;;;25.35;;
72573;SDS011;60603;52.548;13.420;2024-03-02T01:28:47;55.30;;;27.13;;
72573;SDS011;60603;52.548;13.420;2024-03-02T01:31:14;52.92;;;25.77;;
72573;SDS011;60603;52.548;13.420;2024-03-02T01:33:41;54.72;;;26.90;;
72573;SDS011;60603;52.548;13.420;2024-03-02T01:36:08;59.38;;;26.92;;
72573;SDS011;60603;52.548;13.420;2024-03-02T01:38:35;54.28;;;26.83;;
72573;SDS011;60603;52.548;13.420;2024-03-02T01:41:02;60.47;;;27.00;;
72573;SDS011;60603;52.548;13.420;2024-03-02T01:43:29;56.85;;;27.58;;
72573;SDS011;60603;52.548;13.420;2024-03-02T01:45:56;63.45;;;27.63;;
72573;SDS011;60603;52.548;13.420;2024-03-02T01:48:23;55.58;;;26.70;;
72573;SDS011;60603;52.548;13.420;2024-03-02T01:50:50;54.55;;;26.77;;
72573;SDS011;60603;52.548;13.420;2024-03-02T01:53:17;61.97;;;30.23;;
72573;SDS011;60603;52.548;13.420;2024-03-02T01:55:43;55.63;;;27.70;;
72573;SDS011;60603;52.548;13.420;2024-03-02T01:58:10;57.42;;;27.98;;
72573;SDS011;60603;52.548;13.420;2024-03-02T02:00:38;57.20;;;28.02;;
72573;SDS011;60603;52.548;13.420;2024-03-02T02:03:04;57.95;;;29.45;;
72573;SDS011;60603;52.548;13.420;2024-03-02T02:05:34;63.28;;;29.42;;
72573;SDS011;60603;52.548;13.420;2024-03-02T02:08:01;51.63;;;26.35;;
72573;SDS011;60603;52.548;13.420;2024-03-02T02:10:28;53.38;;;26.05;;
72573;SDS011;60603;52.548;13.420;2024-03-02T02:12:55;60.83;;;27.83;;
72573;SDS011;60603;52.548;13.420;2024-03-02T02:15:23;60.58;;;28.48;;
72573;SDS011;60603;52.548;13.420;2024-03-02T02:17:50;55.85;;;27.02;;
72573;SDS011;60603;52.548;13.420;2024-03-02T02:20:17;56.85;;;26.55;;
72573;SDS011;60603;52.548;13.420;2024-03-02T02:25:32;51.28;;;25.95;;
72573;SDS011;60603;52.548;13.420;2024-03-02T02:27:59;54.65;;;27.35;;
72573;SDS011;60603;52.548;13.420;2024-03-02T02:30:27;54.20;;;27.20;;
72573;SDS011;60603;52.548;13.420;2024-03-02T02:32:55;56.67;;;27.30;;
72573;SDS011;60603;52.548;13.420;2024-03-02T02:35:23;58.95;;;27.58;;
72573;SDS011;60603;52.548;13.420;2024-03-02T02:37:53;55.38;;;27.33;;
72573;SDS011;60603;52.548;13.420;2024-03-02T02:40:21;58.28;;;27.48;;
72573;SDS011;60603;52.548;13.420;2024-03-02T02:42:48;64.13;;;28.67;;
72573;SDS011;60603;52.548;13.420;2024-03-02T02:45:15;60.40;;;27.67;;
72573;SDS011;60603;52.548;13.420;2024-03-02T02:47:42;64.43;;;30.65;;
72573;SDS011;60603;52.548;13.420;2024-03-02T02:50:10;65.15;;;29.85;;
72573;SDS011;60603;52.548;13.420;2024-03-02T02:52:38;65.55;;;34.67;;
72573;SDS011;60603;52.548;13.420;2024-03-02T02:55:07;66.88;;;31.15;;
72573;SDS011;60603;52.548;13.420;2024-03-02T02:57:36;61.30;;;30.95;;
72573;SDS011;60603;52.548;13.420;2024-03-02T03:00:10;69.20;;;31.67;;
72573;SDS011;60603;52.548;13.420;2024-03-02T03:02:43;64.50;;;31.52;;
72573;SDS011;60603;52.548;13.420;2024-03-02T03:05:12;66.25;;;32.25;;
72573;SDS011;60603;52.548;13.420;2024-03-02T03:07:43;68.05;;;30.63;;
72573;SDS011;60603;52.548;13.420;2024-03-02T03:10:16;69.43;;;31.55;;
72573;SDS011;60603;52.548;13.420;2024-03-02T03:15:14;68.60;;;31.30;;
72573;SDS011;60603;52.548;13.420;2024-03-02T03:17:42;67.47;;;29.48;;
72573;SDS011;60603;52.548;13.420;2024-03-02T03:20:09;69.82;;;31.90;;
72573;SDS011;60603;52.548;13.420;2024-03-02T03:22:39;62.67;;;29.08;;
72573;SDS011;60603;52.548;13.420;2024-03-02T03:25:06;65.25;;;30.50;;
72573;SDS011;60603;52.548;13.420;2024-03-02T03:27:36;63.03;;;30.48;;
72573;SDS011;60603;52.548;13.420;2024-03-02T03:30:03;68.07;;;31.00;;
72573;SDS011;60603;52.548;13.420;2024-03-02T03:32:32;58.53;;;27.95;;
72573;SDS011;60603;52.548;13.420;2024-03-02T03:34:59;66.90;;;30.35;;
72573;SDS011;60603;52.548;13.420;2024-03-02T03:37:26;66.65;;;29.77;;
72573;SDS011;60603;52.548;13.420;2024-03-02T03:40:02;65.07;;;31.42;;
72573;SDS011;60603;52.548;13.420;2024-03-02T03:42:33;59.50;;;28.00;;
72573;SDS011;60603;52.548;13.420;2024-03-02T03:45:00;63.17;;;31.10;;
72573;SDS011;60603;52.548;13.420;2024-03-02T03:47:28;64.07;;;31.05;;
72573;SDS011;60603;52.548;13.420;2024-03-02T03:49:55;59.92;;;28.05;;
72573;SDS011;60603;52.548;13.420;2024-03-02T03:52:22;56.53;;;27.55;;
72573;SDS011;60603;52.548;13.420;2024-03-02T03:54:49;57.58;;;26.83;;
72573;SDS011;60603;52.548;13.420;2024-03-02T03:57:16;61.22;;;28.65;;
72573;SDS011;60603;52.548;13.420;2024-03-02T03:59:43;55.45;;;27.30;;
72573;SDS011;60603;52.548;13.420;2024-03-02T04:02:11;59.95;;;27.40;;
72573;SDS011;60603;52.548;13.420;2024-03-02T04:04:39;63.15;;;28.77;;
72573;SDS011;60603;52.548;13.420;2024-03-02T04:07:06;57.05;;;27.08;;
72573;SDS011;60603;52.548;13.420;2024-03-02T04:09:33;62.65;;;27.80;;
72573;SDS011;60603;52.548;13.420;2024-03-02T04:12:01;60.97;;;27.45;;
72573;SDS011;60603;52.548;13.420;2024-03-02T04:14:34;51.90;;;26.70;;
72573;SDS011;60603;52.548;13.420;2024-03-02T04:17:00;57.67;;;27.92;;
72573;SDS011;60603;52.548;13.420;2024-03-02T04:19:27;56.05;;;26.58;;
72573;SDS011;60603;52.548;13.420;2024-03-02T04:21:54;54.63;;;25.33;;
72573;SDS011;60603;52.548;13.420;2024-03-02T04:24:21;56.20;;;27.02;;
72573;SDS011;60603;52.548;13.420;2024-03-02T04:26:48;51.50;;;26.05;;
72573;SDS011;60603;52.548;13.420;2024-03-02T04:29:15;53.00;;;26.30;;
72573;SDS011;60603;52.548;13.420;2024-03-02T04:31:41;53.08;;;25.30;;
72573;SDS011;60603;52.548;13.420;2024-03-02T04:34:08;49.00;;;23.65;;
72573;SDS011;60603;52.548;13.420;2024-03-02T04:36:35;47.53;;;23.05;;
72573;SDS011;60603;52.548;13.420;2024-03-02T04:39:02;50.25;;;24.35;;
72573;SDS011;60603;52.548;13.420;2024-03-02T04:41:29;42.47;;;22.83;;
72573;SDS011;60603;52.548;13.420;2024-03-02T04:43:56;52.47;;;23.98;;
72573;SDS011;60603;52.548;13.420;2024-03-02T04:46:23;48.97;;;25.60;;
72573;SDS011;60603;52.548;13.420;2024-03-02T04:48:51;45.90;;;23.10;;
72573;SDS011;60603;52.548;13.420;2024-03-02T04:51:22;48.28;;;22.60;;
72573;SDS011;60603;52.548;13.420;2024-03-02T04:53:49;52.42;;;24.02;;
72573;SDS011;60603;52.548;13.420;2024-03-02T04:56:16;50.90;;;23.70;;
72573;SDS011;60603;52.548;13.420;2024-03-02T04:58:58;51.30;;;25.55;;
72573;SDS011;60603;52.548;13.420;2024-03-02T05:01:25;50.95;;;24.05;;
72573;SDS011;60603;52.548;13.420;2024-03-02T05:03:51;52.28;;;24.17;;
72573;SDS011;60603;52.548;13.420;2024-03-02T05:06:18;46.30;;;24.23;;
72573;SDS011;60603;52.548;13.420;2024-03-02T05:08:45;52.28;;;25.05;;
72573;SDS011;60603;52.548;13.420;2024-03-02T05:11:12;54.88;;;25.63;;
72573;SDS011;60603;52.548;13.420;2024-03-02T05:13:59;45.97;;;25.13;;
72573;SDS011;60603;52.548;13.420;2024-03-02T05:16:26;53.13;;;25.33;;
72573;SDS011;60603;52.548;13.420;2024-03-02T05:18:53;52.55;;;25.08;;
72573;SDS011;60603;52.548;13.420;2024-03-02T05:21:20;49.55;;;24.67;;
72573;SDS011;60603;52.548;13.420;2024-03-02T05:23:46;51.63;;;23.70;;
72573;SDS011;60603;52.548;13.420;2024-03-02T05:26:13;46.65;;;24.80;;
72573;SDS011;60603;52.548;13.420;2024-03-02T05:28:40;49.88;;;26.08;;
72573;SDS011;60603;52.548;13.420;2024-03-02T05:31:10;53.70;;;24.05;;
72573;SDS011;60603;52.548;13.420;2024-03-02T05:33:37;49.42;;;24.45;;
72573;SDS011;60603;52.548;13.420;2024-03-02T05:36:05;52.72;;;23.70;;
72573;SDS011;60603;52.548;13.420;2024-03-02T05:38:34;50.88;;;25.23;;
72573;SDS011;60603;52.548;13.420;2024-03-02T05:41:04;48.28;;;24.20;;
72573;SDS011;60603;52.548;13.420;2024-03-02T05:43:31;54.38;;;25.63;;
72573;SDS011;60603;52.548;13.420;2024-03-02T05:45:58;54.63;;;26.33;;
72573;SDS011;60603;52.548;13.420;2024-03-02T05:48:25;51.33;;;26.33;;
72573;SDS011;60603;52.548;13.420;2024-03-02T05:50:52;57.10;;;30.02;;
72573;SDS011;60603;52.548;13.420;2024-03-02T05:53:19;53.30;;;25.02;;
72573;SDS011;60603;52.548;13.420;2024-03-02T05:55:46;53.65;;;26.02;;
72573;SDS011;60603;52.548;13.420;2024-03-02T05:58:13;55.28;;;25.50;;
72573;SDS011;60603;52.548;13.420;2024-03-02T06:01:00;57.40;;;27.17;;
72573;SDS011;60603;52.548;13.420;2024-03-02T06:03:27;52.50;;;26.23;;
72573;SDS011;60603;52.548;13.420;2024-03-02T06:05:55;55.80;;;26.88;;
72573;SDS011;60603;52.548;13.420;2024-03-02T06:08:22;61.78;;;28.65;;
72573;SDS011;60603;52.548;13.420;2024-03-02T06:10:49;56.35;;;27.60;;
72573;SDS011;60603;52.548;13.420;2024-03-02T06:13:15;53.17;;;26.08;;
72573;SDS011;60603;52.548;13.420;2024-03-02T06:15:43;52.00;;;25.15;;
72573;SDS011;60603;52.548;13.420;2024-03-02T06:18:09;52.72;;;25.73;;
72573;SDS011;60603;52.548;13.420;2024-03-02T06:20:36;50.65;;;25.48;;
72573;SDS011;60603;52.548;13.420;2024-03-02T06:23:03;54.03;;;25.23;;
72573;SDS011;60603;52.548;13.420;2024-03-02T06:25:31;52.83;;;24.70;;
72573;SDS011;60603;52.548;13.420;2024-03-02T06:27:57;52.63;;;26.10;;
72573;SDS011;60603;52.548;13.420;2024-03-02T06:30:25;54.13;;;26.00;;
72573;SDS011;60603;52.548;13.420;2024-03-02T06:32:51;53.63;;;26.42;;
72573;SDS011;60603;52.548;13.420;2024-03-02T06:35:18;48.67;;;24.70;;
72573;SDS011;60603;52.548;13.420;2024-03-02T06:37:45;50.13;;;27.58;;
72573;SDS011;60603;52.548;13.420;2024-03-02T06:40:12;49.17;;;23.83;;
72573;SDS011;60603;52.548;13.420;2024-03-02T06:42:39;55.47;;;27.63;;
72573;SDS011;60603;52.548;13.420;2024-03-02T06:45:06;52.03;;;24.73;;
72573;SDS011;60603;52.548;13.420;2024-03-02T06:47:33;53.35;;;25.33;;
72573;SDS011;60603;52.548;13.420;2024-03-02T06:50:00;55.42;;;26.15;;
72573;SDS011;60603;52.548;13.420;2024-03-02T06:52:28;53.00;;;24.75;;
72573;SDS011;60603;52.548;13.420;2024-03-02T06:54:55;55.00;;;24.23;;
72573;SDS011;60603;52.548;13.420;2024-03-02T06:57:22;56.30;;;27.98;;
72573;SDS011;60603;52.548;13.420;2024-03-02T06:59:49;51.72;;;25.88;;
72573;SDS011;60603;52.548;13.420;2024-03-02T07:02:17;51.70;;;25.23;;
72573;SDS011;60603;52.548;13.420;2024-03-02T07:04:44;54.83;;;24.88;;
72573;SDS011;60603;52.548;13.420;2024-03-02T07:07:11;56.25;;;26.00;;
72573;SDS011;60603;52.548;13.420;2024-03-02T07:09:41;55.53;;;26.25;;
72573;SDS011;60603;52.548;13.420;2024-03-02T07:12:08;53.35;;;25.98;;
72573;SDS011;60603;52.548;13.420;2024-03-02T07:14:35;56.45;;;25.98;;
72573;SDS011;60603;52.548;13.420;2024-03-02T07:17:34;60.10;;;26.38;;
72573;SDS011;60603;52.548;13.420;2024-03-02T07:20:02;58.63;;;27.00;;
72573;SDS011;60603;52.548;13.420;2024-03-02T07:22:29;58.03;;;25.98;;
72573;SDS011;60603;52.548;13.420;2024-03-02T07:24:56;51.35;;;24.65;;
72573;SDS011;60603;52.548;13.420;2024-03-02T07:27:23;51.47;;;26.20;;
72573;SDS011;60603;52.548;13.420;2024-03-02T07:29:50;53.88;;;25.63;;
72573;SDS011;60603;52.548;13.420;2024-03-02T07:32:17;57.70;;;28.23;;
72573;SDS011;60603;52.548;13.420;2024-03-02T07:34:44;52.63;;;25.42;;
72573;SDS011;60603;52.548;13.420;2024-03-02T07:37:12;53.28;;;26.58;;
72573;SDS011;60603;52.548;13.420;2024-03-02T07:39:39;53.60;;;25.52;;
72573;SDS011;60603;52.548;13.420;2024-03-02T07:42:06;61.65;;;26.00;;
72573;SDS011;60603;52.548;13.420;2024-03-02T07:44:33;57.85;;;26.10;;
72573;SDS011;60603;52.548;13.420;2024-03-02T07:47:02;51.80;;;25.25;;
72573;SDS011;60603;52.548;13.420;2024-03-02T07:49:29;54.88;;;27.13;;
72573;SDS011;60603;52.548;13.420;2024-03-02T07:51:56;60.25;;;28.75;;
72573;SDS011;60603;52.548;13.420;2024-03-02T07:54:23;54.35;;;25.77;;
72573;SDS011;60603;52.548;13.420;2024-03-02T07:56:50;61.10;;;27.90;;
72573;SDS011;60603;52.548;13.420;2024-03-02T07:59:17;55.17;;;25.98;;
72573;SDS011;60603;52.548;13.420;2024-03-02T08:01:44;55.65;;;26.33;;
72573;SDS011;60603;52.548;13.420;2024-03-02T08:04:11;54.15;;;26.02;;
72573;SDS011;60603;52.548;13.420;2024-03-02T08:06:38;51.45;;;26.10;;
72573;SDS011;60603;52.548;13.420;2024-03-02T08:09:05;51.72;;;24.50;;
72573;SDS011;60603;52.548;13.420;2024-03-02T08:11:36;48.70;;;24.95;;
72573;SDS011;60603;52.548;13.420;2024-03-02T08:14:04;52.17;;;24.40;;
72573;SDS011;60603;52.548;13.420;2024-03-02T08:16:30;51.67;;;26.83;;
72573;SDS011;60603;52.548;13.420;2024-03-02T08:18:57;51.05;;;23.85;;
72573;SDS011;60603;52.548;13.420;2024-03-02T08:21:24;58.25;;;25.30;;
72573;SDS011;60603;52.548;13.420;2024-03-02T08:23:52;50.28;;;26.30;;
72573;SDS011;60603;52.548;13.420;2024-03-02T08:26:18;51.72;;;25.52;;
72573;SDS011;60603;52.548;13.420;2024-03-02T08:28:46;57.08;;;26.35;;
72573;SDS011;60603;52.548;13.420;2024-03-02T08:31:15;54.80;;;25.60;;
72573;SDS011;60603;52.548;13.420;2024-03-02T08:33:42;54.20;;;26.95;;
72573;SDS011;60603;52.548;13.420;2024-03-02T08:36:09;52.13;;;25.70;;
72573;SDS011;60603;52.548;13.420;2024-03-02T08:38:36;55.63;;;25.58;;
72573;SDS011;60603;52.548;13.420;2024-03-02T08:41:03;51.55;;;25.02;;
72573;SDS011;60603;52.548;13.420;2024-03-02T08:43:30;51.75;;;25.23;;
72573;SDS011;60603;52.548;13.420;2024-03-02T08:45:57;46.72;;;23.42;;
72573;SDS011;60603;52.548;13.420;2024-03-02T08:48:24;51.47;;;24.25;;
72573;SDS011;60603;52.548;13.420;2024-03-02T08:50:51;57.15;;;25.05;;
72573;SDS011;60603;52.548;13.420;2024-03-02T08:53:18;47.55;;;23.27;;
72573;SDS011;60603;52.548;13.420;2024-03-02T08:55:51;52.90;;;24.45;;
72573;SDS011;60603;52.548;13.420;2024-03-02T08:58:19;50.20;;;23.70;;
72573;SDS011;60603;52.548;13.420;2024-03-02T09:00:46;48.17;;;23.50;;
72573;SDS011;60603;52.548;13.420;2024-03-02T09:03:13;47.17;;;23.45;;
72573;SDS011;60603;52.548;13.420;2024-03-02T09:05:41;51.67;;;24.75;;
72573;SDS011;60603;52.548;13.420;2024-03-02T09:08:14;49.05;;;23.38;;
72573;SDS011;60603;52.548;13.420;2024-03-02T09:10:41;50.83;;;23.13;;
72573;SDS011;60603;52.548;13.420;2024-03-02T09:13:08;51.38;;;23.10;;
72573;SDS011;60603;52.548;13.420;2024-03-02T09:15:35;45.08;;;21.35;;
72573;SDS011;60603;52.548;13.420;2024-03-02T09:18:04;46.08;;;23.98;;
72573;SDS011;60603;52.548;13.420;2024-03-02T09:20:31;50.75;;;26.02;;
72573;SDS011;60603;52.548;13.420;2024-03-02T09:22:58;50.00;;;23.52;;
72573;SDS011;60603;52.548;13.420;2024-03-02T09:25:24;45.60;;;24.25;;
72573;SDS011;60603;52.548;13.420;2024-03-02T09:27:52;45.17;;;22.08;;
72573;SDS011;60603;52.548;13.420;2024-03-02T09:30:18;46.10;;;23.48;;
72573;SDS011;60603;52.548;13.420;2024-03-02T09:32:45;50.85;;;23.83;;
72573;SDS011;60603;52.548;13.420;2024-03-02T09:35:17;49.55;;;24.30;;
72573;SDS011;60603;52.548;13.420;2024-03-02T09:37:44;49.97;;;24.15;;
72573;SDS011;60603;52.548;13.420;2024-03-02T09:40:13;48.00;;;23.98;;
72573;SDS011;60603;52.548;13.420;2024-03-02T09:42:40;47.60;;;22.10;;
72573;SDS011;60603;52.548;13.420;2024-03-02T09:45:08;46.85;;;23.48;;
72573;SDS011;60603;52.548;13.420;2024-03-02T09:47:35;48.63;;;22.98;;
72573;SDS011;60603;52.548;13.420;2024-03-02T09:50:02;43.13;;;21.60;;
72573;SDS011;60603;52.548;13.420;2024-03-02T09:52:30;41.10;;;21.33;;
72573;SDS011;60603;52.548;13.420;2024-03-02T09:54:57;41.90;;;20.90;;
72573;SDS011;60603;52.548;13.420;2024-03-02T09:57:24;41.28;;;21.13;;
72573;SDS011;60603;52.548;13.420;2024-03-02T09:59:54;47.17;;;22.23;;
72573;SDS011;60603;52.548;13.420;2024-03-02T10:02:21;42.70;;;21.80;;
72573;SDS011;60603;52.548;13.420;2024-03-02T10:04:48;37.67;;;19.30;;
72573;SDS011;60603;52.548;13.420;2024-03-02T10:07:16;35.85;;;18.80;;
72573;SDS011;60603;52.548;13.420;2024-03-02T10:09:45;40.95;;;19.80;;
72573;SDS011;60603;52.548;13.420;2024-03-02T10:12:15;40.88;;;19.75;;
72573;SDS011;60603;52.548;13.420;2024-03-02T10:14:45;42.40;;;19.85;;
72573;SDS011;60603;52.548;13.420;2024-03-02T10:17:16;38.80;;;19.73;;
72573;SDS011;60603;52.548;13.420;2024-03-02T10:19:43;41.30;;;19.02;;
72573;SDS011;60603;52.548;13.420;2024-03-02T10:22:10;41.17;;;21.20;;
72573;SDS011;60603;52.548;13.420;2024-03-02T10:24:41;36.67;;;18.15;;
72573;SDS011;60603;52.548;13.420;2024-03-02T10:27:18;35.80;;;18.17;;
72573;SDS011;60603;52.548;13.420;2024-03-02T10:29:52;33.90;;;16.77;;
72573;SDS011;60603;52.548;13.420;2024-03-02T10:32:22;34.97;;;16.50;;
72573;SDS011;60603;52.548;13.420;2024-03-02T10:34:50;30.90;;;16.70;;
72573;SDS011;60603;52.548;13.420;2024-03-02T10:37:18;29.48;;;17.00;;
72573;SDS011;60603;52.548;13.420;2024-03-02T10:39:48;31.77;;;16.70;;
72573;SDS011;60603;52.548;13.420;2024-03-02T10:42:15;32.60;;;16.75;;
72573;SDS011;60603;52.548;13.420;2024-03-02T10:44:42;33.80;;;16.50;;
72573;SDS011;60603;52.548;13.420;2024-03-02T10:47:10;30.60;;;15.52;;
72573;SDS011;60603;52.548;13.420;2024-03-02T10:49:38;28.67;;;15.10;;
72573;SDS011;60603;52.548;13.420;2024-03-02T10:52:11;27.52;;;14.20;;
72573;SDS011;60603;52.548;13.420;2024-03-02T10:54:38;30.05;;;14.48;;
72573;SDS011;60603;52.548;13.420;2024-03-02T10:57:07;27.02;;;14.68;;
72573;SDS011;60603;52.548;13.420;2024-03-02T10:59:36;28.58;;;14.13;;
72573;SDS011;60603;52.548;13.420;2024-03-02T11:04:37;26.38;;;14.38;;
72573;SDS011;60603;52.548;13.420;2024-03-02T11:07:06;28.45;;;13.50;;
72573;SDS011;60603;52.548;13.420;2024-03-02T11:09:34;27.90;;;12.82;;
72573;SDS011;60603;52.548;13.420;2024-03-02T11:14:41;24.85;;;12.85;;
72573;SDS011;60603;52.548;13.420;2024-03-02T11:17:12;25.65;;;12.65;;
72573;SDS011;60603;52.548;13.420;2024-03-02T11:19:42;25.63;;;11.93;;
72573;SDS011;60603;52.548;13.420;2024-03-02T11:22:09;25.67;;;13.48;;
72573;SDS011;60603;52.548;13.420;2024-03-02T11:24:36;30.10;;;13.30;;
72573;SDS011;60603;52.548;13.420;2024-03-02T11:27:05;24.88;;;12.80;;
72573;SDS011;60603;52.548;13.420;2024-03-02T11:37:03;27.42;;;14.10;;
72573;SDS011;60603;52.548;13.420;2024-03-02T11:39:30;25.48;;;13.25;;
72573;SDS011;60603;52.548;13.420;2024-03-02T11:41:59;23.50;;;11.65;;
72573;SDS011;60603;52.548;13.420;2024-03-02T11:44:27;23.88;;;11.13;;
72573;SDS011;60603;52.548;13.420;2024-03-02T11:46:58;25.63;;;12.30;;
72573;SDS011;60603;52.548;13.420;2024-03-02T11:49:41;27.33;;;13.55;;
72573;SDS011;60603;52.548;13.420;2024-03-02T11:52:21;25.48;;;11.77;;
72573;SDS011;60603;52.548;13.420;2024-03-02T11:54:48;24.20;;;12.18;;
72573;SDS011;60603;52.548;13.420;2024-03-02T11:57:18;24.83;;;12.88;;
72573;SDS011;60603;52.548;13.420;2024-03-02T11:59:47;25.73;;;12.02;;
72573;SDS011;60603;52.548;13.420;2024-03-02T12:02:15;21.63;;;12.13;;
72573;SDS011;60603;52.548;13.420;2024-03-02T12:04:43;28.42;;;12.95;;
72573;SDS011;60603;52.548;13.420;2024-03-02T12:07:11;24.75;;;12.57;;
72573;SDS011;60603;52.548;13.420;2024-03-02T12:09:46;22.38;;;12.30;;
72573;SDS011;60603;52.548;13.420;2024-03-02T12:12:13;26.60;;;11.27;;
72573;SDS011;60603;52.548;13.420;2024-03-02T12:14:51;23.27;;;11.85;;
72573;SDS011;60603;52.548;13.420;2024-03-02T12:17:22;23.70;;;11.68;;
72573;SDS011;60603;52.548;13.420;2024-03-02T12:19:49;25.15;;;12.55;;
72573;SDS011;60603;52.548;13.420;2024-03-02T12:22:16;23.27;;;12.63;;
72573;SDS011;60603;52.548;13.420;2024-03-02T12:24:44;23.88;;;11.65;;
72573;SDS011;60603;52.548;13.420;2024-03-02T12:27:15;21.45;;;11.73;;
72573;SDS011;60603;52.548;13.420;2024-03-02T12:29:42;17.80;;;10.25;;
72573;SDS011;60603;52.548;13.420;2024-03-02T12:32:09;20.90;;;9.95;;
72573;SDS011;60603;52.548;13.420;2024-03-02T12:34:37;24.90;;;12.18;;
72573;SDS011;60603;52.548;13.420;2024-03-02T12:37:05;23.23;;;10.95;;
72573;SDS011;60603;52.548;13.420;2024-03-02T12:39:32;21.90;;;10.32;;
72573;SDS011;60603;52.548;13.420;2024-03-02T12:41:59;24.27;;;10.88;;
72573;SDS011;60603;52.548;13.420;2024-03-02T12:44:29;22.65;;;11.00;;
72573;SDS011;60603;52.548;13.420;2024-03-02T12:46:56;20.48;;;11.10;;
72573;SDS011;60603;52.548;13.420;2024-03-02T12:49:26;21.00;;;11.00;;
72573;SDS011;60603;52.548;13.420;2024-03-02T12:51:55;20.17;;;11.38;;
72573;SDS011;60603;52.548;13.420;2024-03-02T12:54:24;22.95;;;11.32;;
72573;SDS011;60603;52.548;13.420;2024-03-02T12:56:53;23.08;;;11.57;;
72573;SDS011;60603;52.548;13.420;2024-03-02T12:59:21;19.35;;;10.90;;
72573;SDS011;60603;52.548;13.420;2024-03-02T13:01:53;23.45;;;10.93;;
72573;SDS011;60603;52.548;13.420;2024-03-02T13:04:27;20.27;;;10.02;;
72573;SDS011;60603;52.548;13.420;2024-03-02T13:06:55;21.42;;;11.65;;
72573;SDS011;60603;52.548;13.420;2024-03-02T13:09:27;19.42;;;10.85;;
72573;SDS011;60603;52.548;13.420;2024-03-02T13:11:54;19.85;;;10.63;;
72573;SDS011;60603;52.548;13.420;2024-03-02T13:14:23;22.92;;;10.80;;
72573;SDS011;60603;52.548;13.420;2024-03-02T13:16:51;20.52;;;10.10;;
72573;SDS011;60603;52.548;13.420;2024-03-02T13:19:19;16.65;;;9.18;;
72573;SDS011;60603;52.548;13.420;2024-03-02T13:21:47;15.88;;;8.85;;
72573;SDS011;60603;52.548;13.420;2024-03-02T13:24:14;17.05;;;9.70;;
72573;SDS011;60603;52.548;13.420;2024-03-02T13:26:41;20.13;;;10.15;;
72573;SDS011;60603;52.548;13.420;2024-03-02T13:29:08;14.77;;;7.28;;
72573;SDS011;60603;52.548;13.420;2024-03-02T13:31:35;12.82;;;7.47;;
72573;SDS011;60603;52.548;13.420;2024-03-02T13:34:02;16.15;;;8.27;;
72573;SDS011;60603;52.548;13.420;2024-03-02T13:36:29;15.57;;;8.18;;
72573;SDS011;60603;52.548;13.420;2024-03-02T13:38:56;14.98;;;8.50;;
72573;SDS011;60603;52.548;13.420;2024-03-02T13:41:24;16.30;;;8.88;;
72573;SDS011;60603;52.548;13.420;2024-03-02T13:43:56;15.52;;;7.82;;
72573;SDS011;60603;52.548;13.420;2024-03-02T13:46:23;16.48;;;7.90;;
72573;SDS011;60603;52.548;13.420;2024-03-02T13:48:50;16.65;;;8.32;;
72573;SDS011;60603;52.548;13.420;2024-03-02T13:51:18;15.43;;;7.95;;
72573;SDS011;60603;52.548;13.420;2024-03-02T13:53:44;15.90;;;7.20;;
72573;SDS011;60603;52.548;13.420;2024-03-02T13:56:11;14.63;;;7.38;;
72573;SDS011;60603;52.548;13.420;2024-03-02T13:58:38;18.08;;;8.10;;
72573;SDS011;60603;52.548;13.420;2024-03-02T14:01:05;17.92;;;8.48;;
72573;SDS011;60603;52.548;13.420;2024-03-02T14:03:32;13.50;;;7.57;;
72573;SDS011;60603;52.548;13.420;2024-03-02T14:05:59;12.40;;;6.80;;
72573;SDS011;60603;52.548;13.420;2024-03-02T14:08:26;15.15;;;7.75;;
72573;SDS011;60603;52.548;13.420;2024-03-02T14:10:53;14.13;;;7.10;;
72573;SDS011;60603;52.548;13.420;2024-03-02T14:13:21;16.77;;;7.93;;
72573;SDS011;60603;52.548;13.420;2024-03-02T14:15:49;15.98;;;7.75;;
72573;SDS011;60603;52.548;13.420;2024-03-02T14:18:16;16.40;;;8.10;;
72573;SDS011;60603;52.548;13.420;2024-03-02T14:20:45;17.60;;;8.57;;
72573;SDS011;60603;52.548;13.420;2024-03-02T14:23:17;16.85;;;8.13;;
72573;SDS011;60603;52.548;13.420;2024-03-02T14:25:45;13.82;;;7.93;;
72573;SDS011;60603;52.548;13.420;2024-03-02T14:28:11;14.77;;;7.60;;
72573;SDS011;60603;52.548;13.420;2024-03-02T14:30:59;14.98;;;7.85;;
72573;SDS011;60603;52.548;13.420;2024-03-02T14:33:27;16.77;;;8.02;;
72573;SDS011;60603;52.548;13.420;2024-03-02T14:35:55;14.45;;;7.80;;